sensor_id;sensor_type;location;lat;lon;timestamp;temperature;humidity
17423;DHT22;8829;47.932;7.810;2022-11-20T00:01:15;6.70;99.90
17423;DHT22;8829;47.932;7.810;2022-11-20T00:03:42;6.70;99.90
17423;DHT22;8829;47.932;7.810;2022-11-20T00:06:11;6.80;99.90
17423;DHT22;8829;47.932;7.810;2022-11-20T00:08:38;6.80;99.90
17423;DHT22;8829;47.932;7.810;2022-11-20T00:11:06;6.80;99.90
17423;DHT22;8829;47.932;7.810;2022-11-20T00:13:33;6.80;99.90
17423;DHT22;8829;47.932;7.810;2022-11-20T00:16:02;6.70;99.90
17423;DHT22;8829;47.932;7.810;2022-11-20T00:18:31;6.60;99.90
17423;DHT22;8829;47.932;7.810;2022-11-20T00:21:02;6.70;99.90
17423;DHT22;8829;47.932;7.810;2022-11-20T00:23:30;6.70;99.90
17423;DHT22;8829;47.932;7.810;2022-11-20T00:26:01;6.70;99.90
17423;DHT22;8829;47.932;7.810;2022-11-20T00:28:28;6.70;99.90
17423;DHT22;8829;47.932;7.810;2022-11-20T00:31:02;6.70;99.90
17423;DHT22;8829;47.932;7.810;2022-11-20T00:33:32;6.60;99.90
17423;DHT22;8829;47.932;7.810;2022-11-20T00:36:00;6.60;99.90
17423;DHT22;8829;47.932;7.810;2022-11-20T00:38:27;6.60;99.90
17423;DHT22;8829;47.932;7.810;2022-11-20T00:40:56;6.50;99.90
17423;DHT22;8829;47.932;7.810;2022-11-20T00:43:22;6.60;99.90
17423;DHT22;8829;47.932;7.810;2022-11-20T00:45:49;6.60;99.90
17423;DHT22;8829;47.932;7.810;2022-11-20T00:48:17;6.70;99.90
17423;DHT22;8829;47.932;7.810;2022-11-20T00:50:45;6.70;99.90
17423;DHT22;8829;47.932;7.810;2022-11-20T00:53:11;6.70;99.90
17423;DHT22;8829;47.932;7.810;2022-11-20T00:55:38;6.60;99.90
17423;DHT22;8829;47.932;7.810;2022-11-20T00:58:06;6.60;99.90
17423;DHT22;8829;47.932;7.810;2022-11-20T01:00:33;6.60;99.90
17423;DHT22;8829;47.932;7.810;2022-11-20T01:02:59;6.50;99.90
17423;DHT22;8829;47.932;7.810;2022-11-20T01:05:26;6.50;99.90
17423;DHT22;8829;47.932;7.810;2022-11-20T01:07:54;6.60;99.90
17423;DHT22;8829;47.932;7.810;2022-11-20T01:10:21;6.60;99.90
17423;DHT22;8829;47.932;7.810;2022-11-20T01:12:48;6.50;99.90
17423;DHT22;8829;47.932;7.810;2022-11-20T01:15:35;6.60;99.90
17423;DHT22;8829;47.932;7.810;2022-11-20T01:18:02;6.70;99.90
17423;DHT22;8829;47.932;7.810;2022-11-20T01:20:28;6.60;99.90
17423;DHT22;8829;47.932;7.810;2022-11-20T01:22:57;6.60;99.90
17423;DHT22;8829;47.932;7.810;2022-11-20T01:25:24;6.70;99.90
17423;DHT22;8829;47.932;7.810;2022-11-20T01:27:51;6.70;99.90
17423;DHT22;8829;47.932;7.810;2022-11-20T01:30:18;6.70;99.90
17423;DHT22;8829;47.932;7.810;2022-11-20T01:32:44;6.80;99.90
17423;DHT22;8829;47.932;7.810;2022-11-20T01:35:11;6.80;99.90
17423;DHT22;8829;47.932;7.810;2022-11-20T01:37:38;6.80;99.90
17423;DHT22;8829;47.932;7.810;2022-11-20T01:40:07;6.80;99.90
17423;DHT22;8829;47.932;7.810;2022-11-20T01:42:34;6.80;99.90
17423;DHT22;8829;47.932;7.810;2022-11-20T01:48:32;6.60;99.90
17423;DHT22;8829;47.932;7.810;2022-11-20T01:51:00;6.50;99.90
17423;DHT22;8829;47.932;7.810;2022-11-20T01:53:31;6.50;99.90
17423;DHT22;8829;47.932;7.810;2022-11-20T01:56:01;6.60;99.90
17423;DHT22;8829;47.932;7.810;2022-11-20T01:58:32;6.60;99.90
17423;DHT22;8829;47.932;7.810;2022-11-20T02:01:00;6.60;99.90
17423;DHT22;8829;47.932;7.810;2022-11-20T02:03:27;6.60;99.90
17423;DHT22;8829;47.932;7.810;2022-11-20T02:05:57;6.60;99.90
17423;DHT22;8829;47.932;7.810;2022-11-20T02:08:25;6.50;99.90
17423;DHT22;8829;47.932;7.810;2022-11-20T02:10:52;6.50;99.90
17423;DHT22;8829;47.932;7.810;2022-11-20T02:13:20;6.50;99.90
17423;DHT22;8829;47.932;7.810;2022-11-20T02:16:09;6.60;99.90
17423;DHT22;8829;47.932;7.810;2022-11-20T02:18:37;6.60;99.90
17423;DHT22;8829;47.932;7.810;2022-11-20T02:21:09;6.70;99.90
17423;DHT22;8829;47.932;7.810;2022-11-20T02:23:53;6.70;99.90
17423;DHT22;8829;47.932;7.810;2022-11-20T02:26:21;6.60;99.90
17423;DHT22;8829;47.932;7.810;2022-11-20T02:28:48;6.60;99.90
17423;DHT22;8829;47.932;7.810;2022-11-20T02:31:15;6.60;99.90
17423;DHT22;8829;47.932;7.810;2022-11-20T02:33:42;6.60;99.90
17423;DHT22;8829;47.932;7.810;2022-11-20T02:36:12;6.60;99.90
17423;DHT22;8829;47.932;7.810;2022-11-20T02:38:41;6.60;99.90
17423;DHT22;8829;47.932;7.810;2022-11-20T02:41:09;6.60;99.90
17423;DHT22;8829;47.932;7.810;2022-11-20T02:43:36;6.60;99.90
17423;DHT22;8829;47.932;7.810;2022-11-20T02:46:03;6.60;99.90
17423;DHT22;8829;47.932;7.810;2022-11-20T02:48:32;6.60;99.90
17423;DHT22;8829;47.932;7.810;2022-11-20T02:50:59;6.60;99.90
17423;DHT22;8829;47.932;7.810;2022-11-20T02:53:26;6.60;99.90
17423;DHT22;8829;47.932;7.810;2022-11-20T02:55:53;6.60;99.90
17423;DHT22;8829;47.932;7.810;2022-11-20T02:58:21;6.60;99.90
17423;DHT22;8829;47.932;7.810;2022-11-20T03:00:48;6.50;99.90
17423;DHT22;8829;47.932;7.810;2022-11-20T03:03:15;6.50;99.90
17423;DHT22;8829;47.932;7.810;2022-11-20T03:05:41;6.50;99.90
17423;DHT22;8829;47.932;7.810;2022-11-20T03:08:09;6.40;99.90
17423;DHT22;8829;47.932;7.810;2022-11-20T03:10:36;6.50;99.90
17423;DHT22;8829;47.932;7.810;2022-11-20T03:13:02;6.50;99.90
17423;DHT22;8829;47.932;7.810;2022-11-20T03:15:32;6.50;99.90
17423;DHT22;8829;47.932;7.810;2022-11-20T03:17:58;6.50;99.90
17423;DHT22;8829;47.932;7.810;2022-11-20T03:20:25;6.50;99.90
17423;DHT22;8829;47.932;7.810;2022-11-20T03:22:53;6.40;99.90
17423;DHT22;8829;47.932;7.810;2022-11-20T03:25:20;6.40;99.90
17423;DHT22;8829;47.932;7.810;2022-11-20T03:27:47;6.50;99.90
17423;DHT22;8829;47.932;7.810;2022-11-20T03:30:15;6.50;99.90
17423;DHT22;8829;47.932;7.810;2022-11-20T03:32:43;6.50;99.90
17423;DHT22;8829;47.932;7.810;2022-11-20T03:35:10;6.50;99.90
17423;DHT22;8829;47.932;7.810;2022-11-20T03:37:37;6.60;99.90
17423;DHT22;8829;47.932;7.810;2022-11-20T03:40:05;6.60;99.90
17423;DHT22;8829;47.932;7.810;2022-11-20T03:42:34;6.50;99.90
17423;DHT22;8829;47.932;7.810;2022-11-20T03:45:13;6.60;99.90
17423;DHT22;8829;47.932;7.810;2022-11-20T03:47:40;6.60;99.90
17423;DHT22;8829;47.932;7.810;2022-11-20T03:50:09;6.60;99.90
17423;DHT22;8829;47.932;7.810;2022-11-20T03:52:37;6.60;99.90
17423;DHT22;8829;47.932;7.810;2022-11-20T03:55:04;6.60;99.90
17423;DHT22;8829;47.932;7.810;2022-11-20T03:57:31;6.60;99.90
17423;DHT22;8829;47.932;7.810;2022-11-20T03:59:58;6.60;99.90
17423;DHT22;8829;47.932;7.810;2022-11-20T04:02:25;6.60;99.90
17423;DHT22;8829;47.932;7.810;2022-11-20T04:04:51;6.60;99.90
17423;DHT22;8829;47.932;7.810;2022-11-20T04:07:19;6.60;99.90
17423;DHT22;8829;47.932;7.810;2022-11-20T04:09:46;6.60;99.90
17423;DHT22;8829;47.932;7.810;2022-11-20T04:12:13;6.60;99.90
17423;DHT22;8829;47.932;7.810;2022-11-20T04:14:40;6.60;99.90
17423;DHT22;8829;47.932;7.810;2022-11-20T04:17:07;6.60;99.90
17423;DHT22;8829;47.932;7.810;2022-11-20T04:19:33;6.60;99.90
17423;DHT22;8829;47.932;7.810;2022-11-20T04:22:00;6.60;99.90
17423;DHT22;8829;47.932;7.810;2022-11-20T04:24:29;6.60;99.90
17423;DHT22;8829;47.932;7.810;2022-11-20T04:26:55;6.60;99.90
17423;DHT22;8829;47.932;7.810;2022-11-20T04:29:22;6.60;99.90
17423;DHT22;8829;47.932;7.810;2022-11-20T04:31:49;6.60;99.90
17423;DHT22;8829;47.932;7.810;2022-11-20T04:34:15;6.60;99.90
17423;DHT22;8829;47.932;7.810;2022-11-20T04:36:42;6.60;99.90
17423;DHT22;8829;47.932;7.810;2022-11-20T04:39:13;6.60;99.90
17423;DHT22;8829;47.932;7.810;2022-11-20T04:41:41;6.60;99.90
17423;DHT22;8829;47.932;7.810;2022-11-20T04:44:09;6.50;99.90
17423;DHT22;8829;47.932;7.810;2022-11-20T04:46:37;6.50;99.90
17423;DHT22;8829;47.932;7.810;2022-11-20T04:49:04;6.50;99.90
17423;DHT22;8829;47.932;7.810;2022-11-20T04:51:32;6.40;99.90
17423;DHT22;8829;47.932;7.810;2022-11-20T04:53:59;6.40;99.90
17423;DHT22;8829;47.932;7.810;2022-11-20T04:56:26;6.40;99.90
17423;DHT22;8829;47.932;7.810;2022-11-20T04:58:54;6.30;99.90
17423;DHT22;8829;47.932;7.810;2022-11-20T05:01:23;6.30;99.90
17423;DHT22;8829;47.932;7.810;2022-11-20T05:03:50;6.30;99.90
17423;DHT22;8829;47.932;7.810;2022-11-20T05:06:18;6.40;99.90
17423;DHT22;8829;47.932;7.810;2022-11-20T05:08:45;6.40;99.90
17423;DHT22;8829;47.932;7.810;2022-11-20T05:11:13;6.30;99.90
17423;DHT22;8829;47.932;7.810;2022-11-20T05:13:41;6.30;99.90
17423;DHT22;8829;47.932;7.810;2022-11-20T05:16:11;6.30;99.90
17423;DHT22;8829;47.932;7.810;2022-11-20T05:18:38;6.30;99.90
17423;DHT22;8829;47.932;7.810;2022-11-20T05:21:06;6.40;99.90
17423;DHT22;8829;47.932;7.810;2022-11-20T05:23:34;6.40;99.90
17423;DHT22;8829;47.932;7.810;2022-11-20T05:26:01;6.40;99.90
17423;DHT22;8829;47.932;7.810;2022-11-20T05:28:29;6.40;99.90
17423;DHT22;8829;47.932;7.810;2022-11-20T05:31:03;6.40;99.90
17423;DHT22;8829;47.932;7.810;2022-11-20T05:33:31;6.40;99.90
17423;DHT22;8829;47.932;7.810;2022-11-20T05:35:58;6.40;99.90
17423;DHT22;8829;47.932;7.810;2022-11-20T05:38:25;6.40;99.90
17423;DHT22;8829;47.932;7.810;2022-11-20T05:40:52;6.40;99.90
17423;DHT22;8829;47.932;7.810;2022-11-20T05:43:19;6.50;99.90
17423;DHT22;8829;47.932;7.810;2022-11-20T05:45:52;6.50;99.90
17423;DHT22;8829;47.932;7.810;2022-11-20T05:48:20;6.50;99.90
17423;DHT22;8829;47.932;7.810;2022-11-20T05:50:48;6.50;99.90
17423;DHT22;8829;47.932;7.810;2022-11-20T05:53:15;6.60;99.90
17423;DHT22;8829;47.932;7.810;2022-11-20T05:55:42;6.60;99.90
17423;DHT22;8829;47.932;7.810;2022-11-20T05:58:09;6.60;99.90
17423;DHT22;8829;47.932;7.810;2022-11-20T06:00:35;6.60;99.90
17423;DHT22;8829;47.932;7.810;2022-11-20T06:03:03;6.60;99.90
17423;DHT22;8829;47.932;7.810;2022-11-20T06:05:29;6.50;99.90
17423;DHT22;8829;47.932;7.810;2022-11-20T06:07:57;6.50;99.90
17423;DHT22;8829;47.932;7.810;2022-11-20T06:10:26;6.50;99.90
17423;DHT22;8829;47.932;7.810;2022-11-20T06:12:53;6.50;99.90
17423;DHT22;8829;47.932;7.810;2022-11-20T06:15:20;6.50;99.90
17423;DHT22;8829;47.932;7.810;2022-11-20T06:17:46;6.60;99.90
17423;DHT22;8829;47.932;7.810;2022-11-20T06:20:13;6.60;99.90
17423;DHT22;8829;47.932;7.810;2022-11-20T06:22:40;6.60;99.90
17423;DHT22;8829;47.932;7.810;2022-11-20T06:25:08;6.60;99.90
17423;DHT22;8829;47.932;7.810;2022-11-20T06:27:35;6.60;99.90
17423;DHT22;8829;47.932;7.810;2022-11-20T06:30:02;6.60;99.90
17423;DHT22;8829;47.932;7.810;2022-11-20T06:32:28;6.60;99.90
17423;DHT22;8829;47.932;7.810;2022-11-20T06:34:55;6.60;99.90
17423;DHT22;8829;47.932;7.810;2022-11-20T06:37:22;6.60;99.90
17423;DHT22;8829;47.932;7.810;2022-11-20T06:39:48;6.70;99.90
17423;DHT22;8829;47.932;7.810;2022-11-20T06:42:16;6.70;99.90
17423;DHT22;8829;47.932;7.810;2022-11-20T06:44:44;6.60;99.90
17423;DHT22;8829;47.932;7.810;2022-11-20T06:47:10;6.60;99.90
17423;DHT22;8829;47.932;7.810;2022-11-20T06:49:37;6.60;99.90
17423;DHT22;8829;47.932;7.810;2022-11-20T06:52:06;6.60;99.90
17423;DHT22;8829;47.932;7.810;2022-11-20T06:54:32;6.60;99.90
17423;DHT22;8829;47.932;7.810;2022-11-20T06:57:00;6.60;99.90
17423;DHT22;8829;47.932;7.810;2022-11-20T06:59:28;6.60;99.90
17423;DHT22;8829;47.932;7.810;2022-11-20T07:01:55;6.60;99.90
17423;DHT22;8829;47.932;7.810;2022-11-20T07:04:21;6.60;99.90
17423;DHT22;8829;47.932;7.810;2022-11-20T07:06:48;6.60;99.90
17423;DHT22;8829;47.932;7.810;2022-11-20T07:09:15;6.60;99.90
17423;DHT22;8829;47.932;7.810;2022-11-20T07:11:42;6.70;99.90
17423;DHT22;8829;47.932;7.810;2022-11-20T07:14:08;6.70;99.90
17423;DHT22;8829;47.932;7.810;2022-11-20T07:16:37;6.70;99.90
17423;DHT22;8829;47.932;7.810;2022-11-20T07:19:03;6.70;99.90
17423;DHT22;8829;47.932;7.810;2022-11-20T07:21:30;6.70;99.90
17423;DHT22;8829;47.932;7.810;2022-11-20T07:23:57;6.80;99.90
17423;DHT22;8829;47.932;7.810;2022-11-20T07:26:24;6.80;99.90
17423;DHT22;8829;47.932;7.810;2022-11-20T07:28:50;6.70;99.90
17423;DHT22;8829;47.932;7.810;2022-11-20T07:31:17;6.80;99.90
17423;DHT22;8829;47.932;7.810;2022-11-20T07:33:45;6.80;99.90
17423;DHT22;8829;47.932;7.810;2022-11-20T07:36:12;6.80;99.90
17423;DHT22;8829;47.932;7.810;2022-11-20T07:38:39;6.80;99.90
17423;DHT22;8829;47.932;7.810;2022-11-20T07:41:05;6.80;99.90
17423;DHT22;8829;47.932;7.810;2022-11-20T07:43:32;6.90;99.90
17423;DHT22;8829;47.932;7.810;2022-11-20T07:45:59;6.90;99.90
17423;DHT22;8829;47.932;7.810;2022-11-20T07:48:26;7.00;99.90
17423;DHT22;8829;47.932;7.810;2022-11-20T07:50:55;7.00;99.90
17423;DHT22;8829;47.932;7.810;2022-11-20T07:53:21;7.00;99.90
17423;DHT22;8829;47.932;7.810;2022-11-20T07:55:48;6.90;99.90
17423;DHT22;8829;47.932;7.810;2022-11-20T07:58:17;6.90;99.90
17423;DHT22;8829;47.932;7.810;2022-11-20T08:00:44;6.90;99.90
17423;DHT22;8829;47.932;7.810;2022-11-20T08:03:11;6.80;99.90
17423;DHT22;8829;47.932;7.810;2022-11-20T08:05:38;6.80;99.90
17423;DHT22;8829;47.932;7.810;2022-11-20T08:08:07;6.70;99.90
17423;DHT22;8829;47.932;7.810;2022-11-20T08:10:34;6.70;99.90
17423;DHT22;8829;47.932;7.810;2022-11-20T08:13:01;6.60;99.90
17423;DHT22;8829;47.932;7.810;2022-11-20T08:15:49;6.60;99.90
17423;DHT22;8829;47.932;7.810;2022-11-20T08:18:17;6.60;99.90
17423;DHT22;8829;47.932;7.810;2022-11-20T08:20:44;6.60;99.90
17423;DHT22;8829;47.932;7.810;2022-11-20T08:23:12;6.70;99.90
17423;DHT22;8829;47.932;7.810;2022-11-20T08:25:39;6.70;99.90
17423;DHT22;8829;47.932;7.810;2022-11-20T08:28:08;6.70;99.90
17423;DHT22;8829;47.932;7.810;2022-11-20T08:30:37;6.70;99.90
17423;DHT22;8829;47.932;7.810;2022-11-20T08:33:06;6.80;99.90
17423;DHT22;8829;47.932;7.810;2022-11-20T08:35:34;6.70;99.90
17423;DHT22;8829;47.932;7.810;2022-11-20T08:38:01;6.70;99.90
17423;DHT22;8829;47.932;7.810;2022-11-20T08:40:30;6.80;99.90
17423;DHT22;8829;47.932;7.810;2022-11-20T08:42:57;6.80;99.90
17423;DHT22;8829;47.932;7.810;2022-11-20T08:45:24;6.80;99.90
17423;DHT22;8829;47.932;7.810;2022-11-20T08:47:50;6.80;99.90
17423;DHT22;8829;47.932;7.810;2022-11-20T08:50:17;6.90;99.90
17423;DHT22;8829;47.932;7.810;2022-11-20T08:52:44;7.00;99.90
17423;DHT22;8829;47.932;7.810;2022-11-20T08:55:11;6.90;99.90
17423;DHT22;8829;47.932;7.810;2022-11-20T08:57:40;6.90;99.90
17423;DHT22;8829;47.932;7.810;2022-11-20T09:00:07;6.90;99.90
17423;DHT22;8829;47.932;7.810;2022-11-20T09:02:34;6.90;99.90
17423;DHT22;8829;47.932;7.810;2022-11-20T09:05:01;6.90;99.90
17423;DHT22;8829;47.932;7.810;2022-11-20T09:07:28;6.90;99.90
17423;DHT22;8829;47.932;7.810;2022-11-20T09:09:55;7.00;99.90
17423;DHT22;8829;47.932;7.810;2022-11-20T09:12:22;6.90;99.90
17423;DHT22;8829;47.932;7.810;2022-11-20T09:14:50;7.00;99.90
17423;DHT22;8829;47.932;7.810;2022-11-20T09:17:17;7.00;99.90
17423;DHT22;8829;47.932;7.810;2022-11-20T09:19:45;7.00;99.90
17423;DHT22;8829;47.932;7.810;2022-11-20T09:22:12;6.90;99.90
17423;DHT22;8829;47.932;7.810;2022-11-20T09:24:39;7.00;99.90
17423;DHT22;8829;47.932;7.810;2022-11-20T09:27:05;7.00;99.90
17423;DHT22;8829;47.932;7.810;2022-11-20T09:29:32;7.00;99.90
17423;DHT22;8829;47.932;7.810;2022-11-20T09:32:01;7.00;99.90
17423;DHT22;8829;47.932;7.810;2022-11-20T09:34:27;7.10;99.90
17423;DHT22;8829;47.932;7.810;2022-11-20T09:36:54;7.00;99.90
17423;DHT22;8829;47.932;7.810;2022-11-20T09:39:20;7.00;99.90
17423;DHT22;8829;47.932;7.810;2022-11-20T09:42:01;7.00;99.90
17423;DHT22;8829;47.932;7.810;2022-11-20T09:44:49;7.00;99.90
17423;DHT22;8829;47.932;7.810;2022-11-20T09:47:28;7.10;99.90
17423;DHT22;8829;47.932;7.810;2022-11-20T09:50:12;7.10;99.90
17423;DHT22;8829;47.932;7.810;2022-11-20T09:52:49;7.10;99.90
17423;DHT22;8829;47.932;7.810;2022-11-20T09:55:19;7.20;99.90
17423;DHT22;8829;47.932;7.810;2022-11-20T09:57:48;7.20;99.90
17423;DHT22;8829;47.932;7.810;2022-11-20T10:00:18;7.20;99.90
17423;DHT22;8829;47.932;7.810;2022-11-20T10:02:52;7.20;99.90
17423;DHT22;8829;47.932;7.810;2022-11-20T10:05:23;7.20;99.90
17423;DHT22;8829;47.932;7.810;2022-11-20T10:07:53;7.20;99.90
17423;DHT22;8829;47.932;7.810;2022-11-20T10:10:29;7.30;99.90
17423;DHT22;8829;47.932;7.810;2022-11-20T10:13:08;7.30;99.90
17423;DHT22;8829;47.932;7.810;2022-11-20T10:15:44;7.40;99.90
17423;DHT22;8829;47.932;7.810;2022-11-20T10:18:23;7.50;99.90
17423;DHT22;8829;47.932;7.810;2022-11-20T10:21:03;7.50;99.90
17423;DHT22;8829;47.932;7.810;2022-11-20T10:23:55;7.50;99.90
17423;DHT22;8829;47.932;7.810;2022-11-20T10:26:31;7.40;99.90
17423;DHT22;8829;47.932;7.810;2022-11-20T10:29:09;7.40;99.90
17423;DHT22;8829;47.932;7.810;2022-11-20T10:31:38;7.30;99.90
17423;DHT22;8829;47.932;7.810;2022-11-20T10:34:16;7.30;99.90
17423;DHT22;8829;47.932;7.810;2022-11-20T10:36:46;7.20;99.90
17423;DHT22;8829;47.932;7.810;2022-11-20T10:39:18;7.30;99.90
17423;DHT22;8829;47.932;7.810;2022-11-20T10:41:51;7.30;99.90
17423;DHT22;8829;47.932;7.810;2022-11-20T10:44:20;7.40;99.90
17423;DHT22;8829;47.932;7.810;2022-11-20T10:47:03;7.50;99.90
17423;DHT22;8829;47.932;7.810;2022-11-20T10:49:32;7.60;99.90
17423;DHT22;8829;47.932;7.810;2022-11-20T10:52:08;7.50;99.90
17423;DHT22;8829;47.932;7.810;2022-11-20T10:54:40;7.60;99.90
17423;DHT22;8829;47.932;7.810;2022-11-20T10:57:17;7.60;99.90
17423;DHT22;8829;47.932;7.810;2022-11-20T10:59:55;7.50;99.90
17423;DHT22;8829;47.932;7.810;2022-11-20T11:02:32;7.50;99.90
17423;DHT22;8829;47.932;7.810;2022-11-20T11:05:08;7.50;99.90
17423;DHT22;8829;47.932;7.810;2022-11-20T11:07:39;7.50;99.90
17423;DHT22;8829;47.932;7.810;2022-11-20T11:10:15;7.60;99.90
17423;DHT22;8829;47.932;7.810;2022-11-20T11:12:45;7.60;99.90
17423;DHT22;8829;47.932;7.810;2022-11-20T11:15:23;7.70;99.90
17423;DHT22;8829;47.932;7.810;2022-11-20T11:17:51;7.80;99.90
17423;DHT22;8829;47.932;7.810;2022-11-20T11:20:20;7.80;99.90
17423;DHT22;8829;47.932;7.810;2022-11-20T11:22:49;7.90;99.90
17423;DHT22;8829;47.932;7.810;2022-11-20T11:25:21;8.00;99.90
17423;DHT22;8829;47.932;7.810;2022-11-20T11:27:50;7.90;99.90
17423;DHT22;8829;47.932;7.810;2022-11-20T11:30:19;8.00;99.90
17423;DHT22;8829;47.932;7.810;2022-11-20T11:32:46;8.10;99.90
17423;DHT22;8829;47.932;7.810;2022-11-20T11:35:26;8.10;99.90
17423;DHT22;8829;47.932;7.810;2022-11-20T11:38:01;8.00;99.90
17423;DHT22;8829;47.932;7.810;2022-11-20T11:40:31;8.00;99.90
17423;DHT22;8829;47.932;7.810;2022-11-20T11:43:01;7.90;99.90
17423;DHT22;8829;47.932;7.810;2022-11-20T11:45:28;7.90;99.90
17423;DHT22;8829;47.932;7.810;2022-11-20T11:47:56;8.00;99.90
17423;DHT22;8829;47.932;7.810;2022-11-20T11:50:26;8.10;99.90
17423;DHT22;8829;47.932;7.810;2022-11-20T11:53:04;8.20;99.90
17423;DHT22;8829;47.932;7.810;2022-11-20T11:55:35;8.20;99.90
17423;DHT22;8829;47.932;7.810;2022-11-20T11:58:14;8.20;99.90
17423;DHT22;8829;47.932;7.810;2022-11-20T12:00:51;8.20;99.90
17423;DHT22;8829;47.932;7.810;2022-11-20T12:03:20;8.20;99.90
17423;DHT22;8829;47.932;7.810;2022-11-20T12:05:55;8.20;99.90
17423;DHT22;8829;47.932;7.810;2022-11-20T12:08:26;8.10;99.90
17423;DHT22;8829;47.932;7.810;2022-11-20T12:10:57;8.10;99.90
17423;DHT22;8829;47.932;7.810;2022-11-20T12:13:37;8.10;99.90
17423;DHT22;8829;47.932;7.810;2022-11-20T12:16:11;8.00;99.90
17423;DHT22;8829;47.932;7.810;2022-11-20T12:18:38;8.00;99.90
17423;DHT22;8829;47.932;7.810;2022-11-20T12:21:17;7.90;99.90
17423;DHT22;8829;47.932;7.810;2022-11-20T12:23:52;7.80;99.90
17423;DHT22;8829;47.932;7.810;2022-11-20T12:26:31;7.80;99.90
17423;DHT22;8829;47.932;7.810;2022-11-20T12:29:06;7.80;99.90
17423;DHT22;8829;47.932;7.810;2022-11-20T12:31:52;7.80;99.90
17423;DHT22;8829;47.932;7.810;2022-11-20T12:34:43;7.80;99.90
17423;DHT22;8829;47.932;7.810;2022-11-20T12:37:19;7.90;99.90
17423;DHT22;8829;47.932;7.810;2022-11-20T12:39:49;7.90;99.90
17423;DHT22;8829;47.932;7.810;2022-11-20T12:54:45;8.20;99.90
17423;DHT22;8829;47.932;7.810;2022-11-20T12:57:18;8.30;99.90
17423;DHT22;8829;47.932;7.810;2022-11-20T13:00:00;8.30;99.90
17423;DHT22;8829;47.932;7.810;2022-11-20T13:02:35;8.30;99.90
17423;DHT22;8829;47.932;7.810;2022-11-20T13:05:18;8.30;99.90
17423;DHT22;8829;47.932;7.810;2022-11-20T13:07:47;8.30;99.90
17423;DHT22;8829;47.932;7.810;2022-11-20T13:10:23;8.30;99.90
17423;DHT22;8829;47.932;7.810;2022-11-20T13:12:55;8.20;99.90
17423;DHT22;8829;47.932;7.810;2022-11-20T13:15:35;8.30;99.90
17423;DHT22;8829;47.932;7.810;2022-11-20T13:18:07;8.30;99.90
17423;DHT22;8829;47.932;7.810;2022-11-20T13:20:36;8.30;99.90
17423;DHT22;8829;47.932;7.810;2022-11-20T13:23:03;8.30;99.90
17423;DHT22;8829;47.932;7.810;2022-11-20T13:25:32;8.30;99.90
17423;DHT22;8829;47.932;7.810;2022-11-20T13:28:01;8.40;99.90
17423;DHT22;8829;47.932;7.810;2022-11-20T13:30:31;8.50;99.90
17423;DHT22;8829;47.932;7.810;2022-11-20T13:33:02;8.50;99.90
17423;DHT22;8829;47.932;7.810;2022-11-20T13:35:33;8.40;99.90
17423;DHT22;8829;47.932;7.810;2022-11-20T13:38:05;8.40;99.90
17423;DHT22;8829;47.932;7.810;2022-11-20T13:40:36;8.30;99.90
17423;DHT22;8829;47.932;7.810;2022-11-20T13:43:19;8.30;99.90
17423;DHT22;8829;47.932;7.810;2022-11-20T13:45:55;8.20;99.90
17423;DHT22;8829;47.932;7.810;2022-11-20T13:48:24;8.20;99.90
17423;DHT22;8829;47.932;7.810;2022-11-20T13:51:00;8.10;99.90
17423;DHT22;8829;47.932;7.810;2022-11-20T13:53:42;8.10;99.90
17423;DHT22;8829;47.932;7.810;2022-11-20T13:56:24;8.10;99.90
17423;DHT22;8829;47.932;7.810;2022-11-20T13:58:58;8.00;99.90
17423;DHT22;8829;47.932;7.810;2022-11-20T14:01:30;7.90;99.90
17423;DHT22;8829;47.932;7.810;2022-11-20T14:03:58;7.90;99.90
17423;DHT22;8829;47.932;7.810;2022-11-20T14:06:27;7.90;99.90
17423;DHT22;8829;47.932;7.810;2022-11-20T14:08:55;7.80;99.90
17423;DHT22;8829;47.932;7.810;2022-11-20T14:11:25;7.80;99.90
17423;DHT22;8829;47.932;7.810;2022-11-20T14:13:58;7.80;99.90
17423;DHT22;8829;47.932;7.810;2022-11-20T14:16:27;7.90;99.90
17423;DHT22;8829;47.932;7.810;2022-11-20T14:18:55;7.90;99.90
17423;DHT22;8829;47.932;7.810;2022-11-20T14:21:24;7.90;99.90
17423;DHT22;8829;47.932;7.810;2022-11-20T14:23:53;8.00;99.90
17423;DHT22;8829;47.932;7.810;2022-11-20T14:26:20;8.00;99.90
17423;DHT22;8829;47.932;7.810;2022-11-20T14:28:50;8.00;99.90
17423;DHT22;8829;47.932;7.810;2022-11-20T14:31:23;8.00;99.90
17423;DHT22;8829;47.932;7.810;2022-11-20T14:33:52;8.00;99.90
17423;DHT22;8829;47.932;7.810;2022-11-20T14:36:21;8.00;99.90
17423;DHT22;8829;47.932;7.810;2022-11-20T14:38:49;8.00;99.90
17423;DHT22;8829;47.932;7.810;2022-11-20T14:41:18;8.00;99.90
17423;DHT22;8829;47.932;7.810;2022-11-20T14:43:46;8.00;99.90
17423;DHT22;8829;47.932;7.810;2022-11-20T14:46:15;8.00;99.90
17423;DHT22;8829;47.932;7.810;2022-11-20T14:48:45;7.90;99.90
17423;DHT22;8829;47.932;7.810;2022-11-20T14:51:25;7.90;99.90
17423;DHT22;8829;47.932;7.810;2022-11-20T14:53:52;8.00;99.90
17423;DHT22;8829;47.932;7.810;2022-11-20T14:56:22;7.90;99.90
17423;DHT22;8829;47.932;7.810;2022-11-20T14:58:55;7.90;99.90
17423;DHT22;8829;47.932;7.810;2022-11-20T15:01:28;7.90;99.90
17423;DHT22;8829;47.932;7.810;2022-11-20T15:04:01;7.80;99.90
17423;DHT22;8829;47.932;7.810;2022-11-20T15:06:28;7.80;99.90
17423;DHT22;8829;47.932;7.810;2022-11-20T15:08:56;7.80;99.90
17423;DHT22;8829;47.932;7.810;2022-11-20T15:11:28;7.80;99.90
17423;DHT22;8829;47.932;7.810;2022-11-20T15:13:57;7.70;99.90
17423;DHT22;8829;47.932;7.810;2022-11-20T15:16:26;7.70;99.90
17423;DHT22;8829;47.932;7.810;2022-11-20T15:18:53;7.60;99.90
17423;DHT22;8829;47.932;7.810;2022-11-20T15:21:20;7.60;99.90
17423;DHT22;8829;47.932;7.810;2022-11-20T15:23:47;7.60;99.90
17423;DHT22;8829;47.932;7.810;2022-11-20T15:26:18;7.60;99.90
17423;DHT22;8829;47.932;7.810;2022-11-20T15:28:48;7.60;99.90
17423;DHT22;8829;47.932;7.810;2022-11-20T15:31:16;7.60;99.90
17423;DHT22;8829;47.932;7.810;2022-11-20T15:33:45;7.50;99.90
17423;DHT22;8829;47.932;7.810;2022-11-20T15:36:12;7.50;99.90
17423;DHT22;8829;47.932;7.810;2022-11-20T15:38:39;7.50;99.90
17423;DHT22;8829;47.932;7.810;2022-11-20T15:41:07;7.60;99.90
17423;DHT22;8829;47.932;7.810;2022-11-20T15:43:34;7.60;99.90
17423;DHT22;8829;47.932;7.810;2022-11-20T15:46:03;7.60;99.90
17423;DHT22;8829;47.932;7.810;2022-11-20T15:48:34;7.50;99.90
17423;DHT22;8829;47.932;7.810;2022-11-20T15:51:06;7.50;99.90
17423;DHT22;8829;47.932;7.810;2022-11-20T15:53:38;7.50;99.90
17423;DHT22;8829;47.932;7.810;2022-11-20T15:56:07;7.40;99.90
17423;DHT22;8829;47.932;7.810;2022-11-20T15:58:36;7.40;99.90
17423;DHT22;8829;47.932;7.810;2022-11-20T16:01:02;7.40;99.90
17423;DHT22;8829;47.932;7.810;2022-11-20T16:03:30;7.40;99.90
17423;DHT22;8829;47.932;7.810;2022-11-20T16:05:57;7.40;99.90
17423;DHT22;8829;47.932;7.810;2022-11-20T16:08:25;7.40;99.90
17423;DHT22;8829;47.932;7.810;2022-11-20T16:10:51;7.40;99.90
17423;DHT22;8829;47.932;7.810;2022-11-20T16:13:18;7.40;99.90
17423;DHT22;8829;47.932;7.810;2022-11-20T16:16:04;7.50;99.90
17423;DHT22;8829;47.932;7.810;2022-11-20T16:18:34;7.40;99.90
17423;DHT22;8829;47.932;7.810;2022-11-20T16:21:01;7.30;99.90
17423;DHT22;8829;47.932;7.810;2022-11-20T16:23:29;7.40;99.90
17423;DHT22;8829;47.932;7.810;2022-11-20T16:25:56;7.30;99.90
17423;DHT22;8829;47.932;7.810;2022-11-20T16:28:22;7.30;99.90
17423;DHT22;8829;47.932;7.810;2022-11-20T16:30:49;7.30;99.90
17423;DHT22;8829;47.932;7.810;2022-11-20T16:33:17;7.30;99.90